Time;durP1;ratioP1;P1;durP2;ratioP2;P2;SDS_P1;SDS_P2;PMS_P1;PMS_P2;Temp;Humidity;BMP_temperature;BMP_pressure;BME280_temperature;BME280_humidity;BME280_pressure;Samples;Min_cycle;Max_cycle;Signal;HPM_P1;HPM_P2
2023/03/24 00:00:16;;;;;;;1.25;1.15;;;10.70;99.90;;;;;;4366232;32;20083;-66
2023/03/24 00:02:44;;;;;;;0.67;0.67;;;10.70;99.90;;;;;;4383663;32;20569;-66
2023/03/24 00:05:12;;;;;;;0.50;0.50;;;10.70;99.90;;;;;;4380493;32;20253;-66
2023/03/24 00:07:38;;;;;;;0.43;0.43;;;10.70;99.90;;;;;;4368082;32;20253;-65
2023/03/24 00:10:08;;;;;;;0.30;0.30;;;10.70;99.90;;;;;;4382193;32;20125;-66
2023/03/24 00:12:37;;;;;;;1.02;0.55;;;10.70;99.90;;;;;;4383227;32;20086;-67
2023/03/24 00:15:06;;;;;;;0.50;0.50;;;10.80;99.90;;;;;;4380900;32;20086;-65
2023/03/24 00:17:34;;;;;;;0.50;0.50;;;10.80;99.90;;;;;;4382342;32;20070;-66
2023/03/24 00:20:01;;;;;;;0.35;0.35;;;10.90;99.90;;;;;;4385047;32;20058;-68
2023/03/24 00:22:27;;;;;;;0.60;0.60;;;11.00;99.90;;;;;;4381249;32;20140;-67
2023/03/24 00:24:53;;;;;;;5.57;0.62;;;11.10;99.90;;;;;;4381785;32;20081;-67
2023/03/24 00:27:18;;;;;;;0.35;0.35;;;11.10;99.90;;;;;;4384530;32;20106;-66
2023/03/24 00:29:44;;;;;;;0.30;0.30;;;11.20;99.90;;;;;;4382283;32;20505;-67
2023/03/24 00:32:09;;;;;;;0.40;0.40;;;11.30;99.90;;;;;;4382659;32;20114;-66
2023/03/24 00:34:37;;;;;;;0.30;0.30;;;11.30;99.90;;;;;;4382873;32;20135;-66
2023/03/24 00:37:04;;;;;;;0.30;0.30;;;11.30;99.90;;;;;;4380672;32;20070;-66
2023/03/24 00:39:30;;;;;;;0.40;0.40;;;11.30;99.90;;;;;;4357189;32;20125;-66
2023/03/24 00:41:58;;;;;;;0.37;0.37;;;11.30;99.90;;;;;;4379368;32;20238;-68
2023/03/24 00:44:24;;;;;;;0.40;0.40;;;11.40;99.90;;;;;;4380923;32;20105;-66
2023/03/24 00:46:58;;;;;;;0.30;0.30;;;11.30;99.90;;;;;;4383463;32;20101;-68
2023/03/24 00:50:00;;;;;;;0.57;0.57;;;11.30;99.90;;;;;;4383631;32;20428;-67
2023/03/24 00:52:19;;;;;;;4.82;1.73;;;11.40;99.90;;;;;;4370633;32;20082;-67
2023/03/24 00:54:46;;;;;;;0.55;0.45;;;11.40;99.90;;;;;;4381410;32;20069;-68
2023/03/24 00:57:13;;;;;;;0.85;0.62;;;11.30;99.90;;;;;;4366112;32;20138;-67
2023/03/24 00:59:47;;;;;;;0.50;0.50;;;11.40;99.90;;;;;;4381219;32;20055;-68
2023/03/24 01:02:20;;;;;;;1.40;1.02;;;11.40;99.90;;;;;;4380824;32;20073;-67
2023/03/24 01:04:52;;;;;;;0.60;0.60;;;11.40;99.90;;;;;;4381209;32;20102;-67
2023/03/24 01:07:20;;;;;;;0.43;0.43;;;11.40;99.90;;;;;;4381824;32;20098;-67
2023/03/24 01:09:50;;;;;;;0.50;0.50;;;11.40;99.90;;;;;;4380966;32;20109;-67
2023/03/24 01:12:17;;;;;;;0.47;0.47;;;11.40;99.90;;;;;;4378850;32;20074;-68
2023/03/24 01:14:43;;;;;;;0.30;0.30;;;11.40;99.90;;;;;;4379689;32;20081;-67
2023/03/24 01:17:09;;;;;;;0.50;0.50;;;11.40;99.90;;;;;;4383611;32;20505;-67
2023/03/24 01:19:35;;;;;;;0.40;0.40;;;11.50;99.90;;;;;;4381015;32;20619;-67
2023/03/24 01:22:01;;;;;;;0.35;0.35;;;11.50;99.90;;;;;;4380765;32;20541;-67
2023/03/24 01:24:26;;;;;;;0.30;0.30;;;11.50;99.90;;;;;;4381680;32;20065;-67
2023/03/24 01:26:52;;;;;;;16.75;0.75;;;11.60;99.90;;;;;;4378552;32;20545;-67
2023/03/24 01:29:17;;;;;;;0.30;0.30;;;11.60;99.90;;;;;;4383613;32;20089;-68
2023/03/24 01:31:43;;;;;;;7.05;0.68;;;11.60;99.90;;;;;;4377615;32;20078;-67
2023/03/24 01:34:08;;;;;;;0.40;0.40;;;11.50;99.90;;;;;;4380478;32;20095;-67
2023/03/24 01:36:34;;;;;;;0.50;0.50;;;11.60;99.90;;;;;;4377098;32;20149;-68
2023/03/24 01:39:00;;;;;;;0.43;0.43;;;11.60;99.90;;;;;;4379409;32;20098;-67
2023/03/24 01:41:33;;;;;;;0.52;0.52;;;11.60;99.90;;;;;;4379083;32;20194;-66
2023/03/24 01:43:59;;;;;;;0.40;0.40;;;11.50;99.90;;;;;;4378141;32;20061;-67
2023/03/24 01:46:25;;;;;;;0.40;0.40;;;11.40;99.90;;;;;;4376433;32;20136;-67
2023/03/24 01:48:55;;;;;;;0.43;0.43;;;11.40;99.90;;;;;;4380120;32;20628;-68
2023/03/24 01:51:29;;;;;;;0.37;0.37;;;11.30;99.90;;;;;;4379455;32;20113;-66
2023/03/24 01:54:08;;;;;;;1.55;1.08;;;11.40;99.90;;;;;;4369279;32;20439;-67
2023/03/24 01:56:37;;;;;;;0.40;0.40;;;11.50;99.90;;;;;;4381933;32;20093;-67
2023/03/24 01:59:09;;;;;;;0.65;0.50;;;11.50;99.90;;;;;;4381319;32;20553;-66
2023/03/24 02:01:34;;;;;;;0.43;0.43;;;11.50;99.90;;;;;;4381974;32;20090;-66
2023/03/24 02:04:03;;;;;;;0.57;0.57;;;11.50;99.90;;;;;;4379287;32;20090;-67
2023/03/24 02:06:31;;;;;;;0.40;0.40;;;11.50;99.90;;;;;;4366486;32;20149;-67
2023/03/24 02:08:58;;;;;;;0.35;0.35;;;11.50;99.90;;;;;;4367919;32;20074;-67
2023/03/24 02:11:25;;;;;;;0.37;0.37;;;11.60;99.90;;;;;;4380764;32;20065;-66
2023/03/24 02:13:51;;;;;;;0.40;0.40;;;11.60;99.90;;;;;;4382208;32;20070;-67
2023/03/24 02:16:30;;;;;;;0.52;0.52;;;11.70;99.90;;;;;;4381218;32;20150;-66
2023/03/24 02:19:25;;;;;;;1.55;0.60;;;11.70;99.90;;;;;;4365432;32;20098;-66
2023/03/24 02:22:04;;;;;;;0.40;0.40;;;11.60;99.90;;;;;;4371803;32;20078;-66
2023/03/24 02:24:53;;;;;;;0.50;0.50;;;11.60;99.90;;;;;;4379535;32;20070;-66
2023/03/24 02:27:47;;;;;;;0.28;0.28;;;11.60;99.90;;;;;;4381168;32;20129;-66
2023/03/24 02:30:53;;;;;;;0.37;0.37;;;11.60;99.90;;;;;;4368565;32;20082;-67
2023/03/24 02:33:39;;;;;;;0.60;0.60;;;11.60;99.90;;;;;;4371239;32;20083;-67
2023/03/24 02:36:47;;;;;;;0.50;0.50;;;11.60;99.90;;;;;;4365886;32;20089;-66
2023/03/24 02:39:41;;;;;;;0.35;0.35;;;11.70;99.90;;;;;;4374585;32;20588;-66
2023/03/24 02:42:11;;;;;;;0.37;0.37;;;11.60;99.90;;;;;;4369694;32;20066;-67
2023/03/24 02:44:50;;;;;;;0.50;0.50;;;11.70;99.90;;;;;;4381738;32;20082;-67
2023/03/24 02:47:24;;;;;;;0.57;0.57;;;11.60;99.90;;;;;;4381490;32;20094;-67
2023/03/24 02:50:08;;;;;;;0.50;0.50;;;11.60;99.90;;;;;;4382510;32;20094;-67
2023/03/24 02:52:49;;;;;;;0.40;0.40;;;11.60;99.90;;;;;;4383789;32;20070;-66
2023/03/24 02:55:24;;;;;;;1.27;0.93;;;11.60;99.90;;;;;;4369075;32;20859;-66
2023/03/24 02:57:57;;;;;;;1.65;0.60;;;11.60;99.90;;;;;;4367275;32;20070;-66
2023/03/24 03:00:29;;;;;;;0.55;0.47;;;11.60;99.90;;;;;;4382180;32;20143;-66
2023/03/24 03:03:01;;;;;;;0.30;0.30;;;11.60;99.90;;;;;;4386945;32;20109;-66
2023/03/24 03:05:34;;;;;;;0.50;0.50;;;11.60;99.90;;;;;;4384449;32;20107;-67
2023/03/24 03:08:04;;;;;;;0.30;0.30;;;11.50;99.90;;;;;;4383569;32;20988;-66
2023/03/24 03:10:34;;;;;;;0.40;0.40;;;11.60;99.90;;;;;;4378821;32;20544;-66
2023/03/24 03:13:05;;;;;;;2.15;0.57;;;11.60;99.90;;;;;;4384246;32;21032;-66
2023/03/24 03:15:36;;;;;;;0.30;0.30;;;11.60;99.90;;;;;;4383369;32;20103;-66
2023/03/24 03:18:26;;;;;;;0.20;0.20;;;11.60;99.90;;;;;;4382195;32;20079;-66
2023/03/24 03:20:59;;;;;;;0.50;0.50;;;11.60;99.90;;;;;;4381099;32;20144;-66
2023/03/24 03:23:34;;;;;;;0.40;0.40;;;11.60;99.90;;;;;;4380281;32;20098;-66
2023/03/24 03:26:04;;;;;;;1.37;0.50;;;11.60;99.90;;;;;;4378418;32;20098;-66
2023/03/24 03:28:32;;;;;;;5.70;0.62;;;11.60;99.90;;;;;;4383022;32;20149;-66
2023/03/24 03:31:05;;;;;;;0.37;0.37;;;11.50;99.90;;;;;;4380846;32;20175;-66
2023/03/24 03:33:45;;;;;;;0.35;0.35;;;11.50;99.90;;;;;;4380261;32;20091;-66
2023/03/24 03:36:32;;;;;;;0.62;0.52;;;11.50;99.90;;;;;;4382381;32;20070;-66
2023/03/24 03:39:10;;;;;;;1.12;0.45;;;11.50;99.90;;;;;;4381497;32;20066;-67
2023/03/24 03:41:37;;;;;;;0.40;0.40;;;11.60;99.90;;;;;;4367295;32;20537;-67
2023/03/24 03:44:04;;;;;;;0.40;0.40;;;11.50;99.90;;;;;;4384533;32;20549;-66
2023/03/24 03:46:29;;;;;;;1.27;0.50;;;11.60;99.90;;;;;;4386844;32;20106;-67
2023/03/24 03:48:55;;;;;;;0.37;0.37;;;11.60;99.90;;;;;;4382852;32;20524;-66
2023/03/24 03:51:21;;;;;;;0.50;0.50;;;11.60;99.90;;;;;;4381531;32;20083;-67
2023/03/24 03:53:50;;;;;;;0.75;0.70;;;11.60;99.90;;;;;;4381794;32;20490;-66
2023/03/24 03:56:19;;;;;;;0.50;0.50;;;11.60;99.90;;;;;;4381225;32;20122;-66
2023/03/24 03:58:46;;;;;;;0.50;0.50;;;11.60;99.90;;;;;;4381547;32;20470;-67
2023/03/24 04:01:17;;;;;;;0.40;0.40;;;11.50;99.90;;;;;;4369973;32;20099;-66
2023/03/24 04:04:25;;;;;;;0.43;0.43;;;11.50;99.90;;;;;;4367935;32;20533;-66
2023/03/24 04:07:17;;;;;;;0.35;0.35;;;11.60;99.90;;;;;;4374786;32;20074;-63
2023/03/24 04:10:19;;;;;;;0.55;0.55;;;11.60;99.90;;;;;;4376867;32;20074;-62
2023/03/24 04:13:11;;;;;;;0.57;0.57;;;11.60;99.90;;;;;;4373604;32;20078;-63
2023/03/24 04:15:45;;;;;;;0.45;0.45;;;11.70;99.90;;;;;;4386760;32;20078;-63
2023/03/24 04:18:31;;;;;;;0.43;0.43;;;11.70;99.90;;;;;;4386895;32;20062;-62
2023/03/24 04:21:18;;;;;;;3.42;0.77;;;11.70;99.90;;;;;;4388159;32;20242;-61
2023/03/24 04:24:02;;;;;;;13.15;1.30;;;11.70;99.90;;;;;;4374993;32;20082;-62
2023/03/24 04:26:53;;;;;;;0.50;0.50;;;11.70;99.90;;;;;;4385460;32;20069;-65
2023/03/24 04:29:32;;;;;;;0.50;0.50;;;11.70;99.90;;;;;;4374838;32;20121;-63
2023/03/24 04:32:07;;;;;;;0.95;0.60;;;11.70;99.90;;;;;;4388127;32;20082;-63
2023/03/24 04:34:40;;;;;;;0.50;0.50;;;11.80;99.90;;;;;;4386442;32;20110;-61
2023/03/24 04:37:11;;;;;;;0.57;0.57;;;11.80;99.90;;;;;;4386911;32;20080;-61
2023/03/24 04:39:39;;;;;;;0.30;0.30;;;11.90;99.90;;;;;;4387530;32;20074;-62
2023/03/24 04:42:10;;;;;;;0.40;0.40;;;11.80;99.90;;;;;;4385335;32;20075;-62
2023/03/24 04:44:36;;;;;;;0.40;0.40;;;11.80;99.90;;;;;;4383769;32;20105;-63
2023/03/24 04:47:03;;;;;;;0.40;0.40;;;11.80;99.90;;;;;;4385691;32;20070;-64
2023/03/24 04:49:29;;;;;;;0.40;0.40;;;11.80;99.90;;;;;;4386343;32;20463;-63
2023/03/24 04:51:55;;;;;;;0.60;0.57;;;11.80;99.90;;;;;;4386214;32;20167;-61
2023/03/24 04:54:22;;;;;;;3.83;0.60;;;11.80;99.90;;;;;;4379243;32;20094;-63
2023/03/24 04:56:50;;;;;;;0.60;0.60;;;11.80;99.90;;;;;;4372824;32;21202;-65
2023/03/24 04:59:17;;;;;;;0.65;0.65;;;11.90;99.90;;;;;;4381610;32;20208;-65
2023/03/24 05:01:48;;;;;;;0.30;0.30;;;11.90;99.90;;;;;;4383328;32;20676;-61
2023/03/24 05:04:15;;;;;;;0.45;0.45;;;11.90;99.90;;;;;;4386049;32;20138;-63
2023/03/24 05:06:40;;;;;;;0.85;0.77;;;11.90;99.90;;;;;;4383872;32;20202;-62
2023/03/24 05:09:06;;;;;;;0.70;0.70;;;11.90;99.90;;;;;;4384455;32;20173;-62
2023/03/24 05:11:32;;;;;;;0.70;0.70;;;11.90;99.90;;;;;;4382679;32;20221;-64
2023/03/24 05:13:57;;;;;;;6.87;0.45;;;12.00;99.90;;;;;;4382518;32;20154;-64
2023/03/24 05:16:23;;;;;;;0.43;0.43;;;12.00;99.90;;;;;;4384261;32;20106;-64
2023/03/24 05:18:48;;;;;;;0.50;0.43;;;12.10;99.90;;;;;;4386668;32;20107;-63
2023/03/24 05:21:14;;;;;;;0.82;0.70;;;12.10;99.90;;;;;;4384167;32;20082;-62
2023/03/24 05:23:40;;;;;;;0.62;0.62;;;12.20;99.90;;;;;;4381980;32;20097;-65
2023/03/24 05:26:06;;;;;;;0.80;0.80;;;12.20;99.90;;;;;;4387010;32;20086;-65
2023/03/24 05:28:31;;;;;;;0.40;0.40;;;12.10;99.90;;;;;;4387364;32;20070;-63
2023/03/24 05:30:57;;;;;;;27.83;1.62;;;12.10;99.90;;;;;;4388977;32;20095;-63
2023/03/24 05:33:22;;;;;;;0.43;0.43;;;12.20;99.90;;;;;;4384891;32;20113;-62
2023/03/24 05:35:48;;;;;;;0.60;0.60;;;12.10;99.90;;;;;;4389921;32;20107;-66
2023/03/24 05:38:13;;;;;;;0.52;0.52;;;12.10;99.90;;;;;;4387112;32;20086;-63
2023/03/24 05:40:40;;;;;;;0.40;0.40;;;12.10;99.90;;;;;;4386002;32;20106;-61
2023/03/24 05:43:07;;;;;;;0.40;0.40;;;12.10;99.90;;;;;;4385358;32;20569;-63
2023/03/24 05:45:33;;;;;;;0.40;0.40;;;12.20;99.90;;;;;;4388660;32;20455;-66
2023/03/24 05:47:59;;;;;;;0.65;0.65;;;12.20;99.90;;;;;;4386882;32;20074;-61
2023/03/24 05:50:24;;;;;;;0.28;0.28;;;12.20;99.90;;;;;;4386692;32;20141;-62
2023/03/24 05:52:51;;;;;;;0.45;0.45;;;12.20;99.90;;;;;;4389509;32;20604;-61
2023/03/24 05:55:18;;;;;;;0.55;0.55;;;12.20;99.90;;;;;;4390369;32;20070;-64
2023/03/24 05:57:44;;;;;;;0.22;0.22;;;12.20;99.90;;;;;;4386133;32;20081;-65
2023/03/24 06:00:16;;;;;;;0.62;0.60;;;12.20;99.90;;;;;;4383827;32;20122;-63
2023/03/24 06:02:43;;;;;;;0.30;0.30;;;12.30;99.90;;;;;;4383031;32;20086;-62
2023/03/24 06:05:09;;;;;;;0.40;0.40;;;12.30;99.90;;;;;;4382934;32;20518;-63
2023/03/24 06:07:37;;;;;;;0.40;0.40;;;12.30;99.90;;;;;;4387900;32;20177;-63
2023/03/24 06:10:03;;;;;;;4.78;1.95;;;12.30;99.90;;;;;;4387489;32;20089;-63
2023/03/24 06:12:29;;;;;;;0.40;0.40;;;12.40;99.90;;;;;;4384713;32;20110;-64
2023/03/24 06:14:56;;;;;;;0.37;0.37;;;12.40;99.90;;;;;;4386182;32;20136;-63
2023/03/24 06:17:23;;;;;;;4.55;0.95;;;12.40;99.90;;;;;;4374422;32;20083;-62
2023/03/24 06:19:50;;;;;;;0.60;0.60;;;12.40;99.90;;;;;;4381296;32;20210;-65
2023/03/24 06:22:16;;;;;;;0.93;0.80;;;12.40;99.90;;;;;;4385638;32;20201;-65
2023/03/24 06:24:43;;;;;;;0.62;0.60;;;12.40;99.90;;;;;;4366828;32;20542;-66
2023/03/24 06:27:10;;;;;;;0.40;0.40;;;12.50;99.90;;;;;;4368599;32;20085;-64
2023/03/24 06:29:36;;;;;;;1.10;0.50;;;12.50;99.90;;;;;;4377044;32;20095;-64
2023/03/24 06:32:04;;;;;;;0.30;0.30;;;12.60;99.90;;;;;;4354190;32;20102;-65
2023/03/24 06:34:31;;;;;;;0.47;0.47;;;12.60;99.90;;;;;;4377036;32;20093;-64
2023/03/24 06:36:56;;;;;;;0.40;0.40;;;12.60;99.90;;;;;;4380906;32;20338;-64
2023/03/24 06:39:22;;;;;;;0.43;0.43;;;12.70;99.90;;;;;;4384547;32;20066;-61
2023/03/24 06:41:48;;;;;;;0.30;0.30;;;12.70;99.90;;;;;;4379990;32;20093;-64
2023/03/24 06:44:14;;;;;;;0.43;0.43;;;12.80;99.90;;;;;;4372999;32;20094;-62
2023/03/24 06:46:39;;;;;;;0.57;0.57;;;12.70;99.90;;;;;;4367102;32;20090;-66
2023/03/24 06:49:05;;;;;;;0.35;0.35;;;12.80;99.90;;;;;;4363205;32;20083;-63
2023/03/24 06:51:31;;;;;;;0.20;0.20;;;12.90;99.90;;;;;;4372416;32;20093;-63
2023/03/24 06:53:56;;;;;;;2.80;0.93;;;12.90;99.90;;;;;;4374258;32;20513;-62
2023/03/24 06:56:22;;;;;;;0.40;0.40;;;12.90;99.90;;;;;;4357374;32;20105;-64
2023/03/24 06:58:48;;;;;;;0.40;0.40;;;12.80;99.90;;;;;;4356084;32;21349;-65
2023/03/24 07:01:14;;;;;;;0.50;0.50;;;12.90;99.90;;;;;;4349119;32;20107;-63
2023/03/24 07:03:41;;;;;;;0.40;0.40;;;12.90;99.90;;;;;;4339392;32;20093;-67
2023/03/24 07:06:08;;;;;;;0.30;0.30;;;12.90;99.90;;;;;;4337581;32;20439;-67
2023/03/24 07:08:34;;;;;;;0.52;0.50;;;12.90;99.90;;;;;;4339543;32;21165;-62
2023/03/24 07:11:01;;;;;;;0.40;0.40;;;13.00;99.90;;;;;;4342725;32;20535;-65
2023/03/24 07:13:27;;;;;;;0.30;0.30;;;13.00;99.90;;;;;;4351965;32;20608;-63
2023/03/24 07:15:52;;;;;;;0.30;0.30;;;13.10;99.90;;;;;;4346301;32;20106;-65
2023/03/24 07:18:18;;;;;;;0.40;0.40;;;13.10;99.90;;;;;;4348986;32;20114;-66
2023/03/24 07:20:44;;;;;;;0.68;0.65;;;13.00;99.90;;;;;;4341609;32;20655;-66
2023/03/24 07:23:10;;;;;;;0.40;0.40;;;13.10;99.90;;;;;;4336541;32;20093;-64
2023/03/24 07:25:35;;;;;;;0.30;0.30;;;13.20;99.90;;;;;;4346266;32;20098;-65
2023/03/24 07:28:01;;;;;;;0.30;0.30;;;13.30;99.90;;;;;;4352199;32;20166;-63
2023/03/24 07:30:26;;;;;;;0.50;0.50;;;13.40;99.90;;;;;;4359229;32;20194;-65
2023/03/24 07:32:55;;;;;;;0.75;0.75;;;13.40;99.90;;;;;;4346831;32;20734;-65
2023/03/24 07:35:21;;;;;;;0.50;0.50;;;13.50;99.90;;;;;;4351751;32;20118;-66
2023/03/24 07:37:46;;;;;;;0.73;0.73;;;13.50;99.90;;;;;;4352888;32;20755;-65
2023/03/24 07:40:14;;;;;;;0.47;0.47;;;13.60;99.90;;;;;;4351999;32;20148;-65
2023/03/24 07:42:41;;;;;;;0.50;0.50;;;13.60;99.90;;;;;;4356235;32;21089;-65
2023/03/24 07:45:09;;;;;;;5.47;0.60;;;13.70;99.90;;;;;;4347866;32;20094;-66
2023/03/24 07:47:35;;;;;;;0.50;0.50;;;13.60;99.90;;;;;;4357774;32;20091;-62
2023/03/24 07:50:03;;;;;;;0.50;0.50;;;13.60;99.90;;;;;;4340008;32;21007;-61
2023/03/24 07:52:29;;;;;;;0.60;0.60;;;13.50;99.90;;;;;;4360102;32;20094;-64
2023/03/24 07:54:55;;;;;;;2.47;0.70;;;13.50;99.90;;;;;;4359532;32;20136;-63
2023/03/24 07:57:21;;;;;;;0.60;0.60;;;13.40;99.90;;;;;;4342311;32;20125;-64
2023/03/24 07:59:47;;;;;;;0.40;0.40;;;13.40;99.90;;;;;;4345709;32;20085;-64
2023/03/24 08:02:20;;;;;;;0.35;0.35;;;13.40;99.90;;;;;;4347917;32;20186;-61
2023/03/24 08:04:45;;;;;;;0.55;0.55;;;13.30;99.90;;;;;;4348498;32;21255;-64
2023/03/24 08:07:12;;;;;;;0.68;0.68;;;13.20;99.90;;;;;;4357777;32;20106;-62
2023/03/24 08:09:38;;;;;;;1.12;0.93;;;13.20;99.90;;;;;;4359124;32;20097;-62
2023/03/24 08:12:04;;;;;;;0.68;0.68;;;13.20;99.90;;;;;;4351219;32;20110;-62
2023/03/24 08:14:30;;;;;;;0.30;0.30;;;13.10;99.90;;;;;;4350775;32;21237;-64
2023/03/24 08:16:55;;;;;;;0.45;0.45;;;13.10;99.90;;;;;;4363308;32;20342;-64
2023/03/24 08:19:21;;;;;;;0.65;0.65;;;13.10;99.90;;;;;;4358231;32;20077;-64
2023/03/24 08:21:47;;;;;;;0.45;0.40;;;13.10;99.90;;;;;;4360175;32;20738;-62
2023/03/24 08:24:12;;;;;;;0.40;0.40;;;13.00;99.90;;;;;;4366140;32;20115;-67
2023/03/24 08:26:39;;;;;;;0.47;0.47;;;13.00;99.90;;;;;;4367284;32;20985;-64
2023/03/24 08:29:04;;;;;;;0.30;0.30;;;13.00;99.90;;;;;;4357723;32;20113;-61
2023/03/24 08:31:33;;;;;;;1.48;0.77;;;13.00;99.90;;;;;;4331007;32;21004;-63
2023/03/24 08:33:58;;;;;;;2.58;0.70;;;13.00;99.90;;;;;;4322842;32;20090;-65
2023/03/24 08:36:25;;;;;;;0.40;0.40;;;13.00;99.90;;;;;;4342957;32;20672;-64
2023/03/24 08:38:53;;;;;;;0.40;0.40;;;13.00;99.90;;;;;;4339602;32;20570;-65
2023/03/24 08:41:19;;;;;;;0.45;0.45;;;13.10;99.90;;;;;;4343872;32;20640;-64
2023/03/24 08:43:45;;;;;;;0.30;0.30;;;13.10;99.90;;;;;;4343672;32;20094;-64
2023/03/24 08:46:11;;;;;;;0.50;0.50;;;13.10;99.90;;;;;;4349410;32;20294;-64
2023/03/24 08:48:39;;;;;;;0.50;0.50;;;13.00;99.90;;;;;;4332456;32;20098;-64
2023/03/24 08:51:20;;;;;;;0.40;0.40;;;13.10;99.90;;;;;;4340674;32;20214;-63
2023/03/24 08:53:45;;;;;;;0.45;0.45;;;13.10;99.90;;;;;;4339067;32;20094;-63
2023/03/24 08:56:11;;;;;;;22.45;1.12;;;13.10;99.90;;;;;;4344216;32;21184;-64
2023/03/24 08:58:36;;;;;;;0.47;0.47;;;13.10;99.90;;;;;;4343250;32;20121;-64
2023/03/24 09:01:02;;;;;;;0.30;0.30;;;13.20;99.90;;;;;;4344036;32;20106;-64
2023/03/24 09:03:28;;;;;;;0.40;0.40;;;13.20;99.90;;;;;;4352605;32;20682;-66
2023/03/24 09:05:56;;;;;;;0.62;0.60;;;13.20;99.90;;;;;;4334962;32;20181;-64
2023/03/24 09:08:21;;;;;;;0.62;0.50;;;13.20;99.90;;;;;;4322284;32;20090;-64
2023/03/24 09:10:50;;;;;;;0.60;0.60;;;13.30;99.90;;;;;;4344128;32;20098;-64
2023/03/24 09:13:16;;;;;;;0.50;0.50;;;13.30;99.90;;;;;;4328675;32;20105;-64
2023/03/24 09:15:52;;;;;;;0.50;0.50;;;13.40;99.90;;;;;;4350856;32;20131;-64
2023/03/24 09:18:20;;;;;;;4.03;0.70;;;13.40;99.90;;;;;;4340037;32;20103;-64
2023/03/24 09:20:46;;;;;;;0.40;0.40;;;13.40;99.90;;;;;;4342001;32;20102;-64
2023/03/24 09:23:12;;;;;;;0.50;0.50;;;13.40;99.90;;;;;;4330526;32;21411;-64
2023/03/24 09:25:38;;;;;;;0.50;0.50;;;13.40;99.90;;;;;;4339805;32;20453;-64
2023/03/24 09:28:05;;;;;;;0.50;0.50;;;13.50;99.90;;;;;;4342732;32;20823;-64
2023/03/24 09:30:31;;;;;;;0.68;0.68;;;13.50;99.90;;;;;;4322946;32;20107;-64
2023/03/24 09:32:57;;;;;;;0.40;0.40;;;13.60;99.90;;;;;;4336410;32;20472;-65
2023/03/24 09:35:24;;;;;;;3.97;0.60;;;13.70;99.90;;;;;;4340982;32;20226;-65
2023/03/24 09:37:50;;;;;;;0.70;0.70;;;13.80;99.90;;;;;;4344145;32;20433;-65
2023/03/24 09:40:23;;;;;;;0.45;0.45;;;14.00;99.90;;;;;;4344735;32;20233;-64
2023/03/24 09:42:58;;;;;;;2.83;1.33;;;14.20;99.90;;;;;;4347377;32;20208;-65
2023/03/24 09:45:26;;;;;;;0.55;0.55;;;14.50;99.90;;;;;;4332152;32;20119;-65
2023/03/24 09:47:56;;;;;;;0.40;0.40;;;14.70;99.90;;;;;;4344853;32;20241;-65
2023/03/24 09:50:25;;;;;;;1.20;0.60;;;15.00;99.90;;;;;;4354092;32;20142;-65
2023/03/24 09:52:57;;;;;;;0.70;0.70;;;15.20;99.90;;;;;;4344236;32;20544;-64
2023/03/24 09:55:26;;;;;;;2.92;0.55;;;15.10;99.90;;;;;;4350298;32;20090;-65
2023/03/24 09:57:55;;;;;;;0.40;0.40;;;15.00;99.90;;;;;;4352751;32;20089;-65
2023/03/24 10:00:26;;;;;;;0.40;0.40;;;15.00;99.90;;;;;;4350460;32;20089;-65
2023/03/24 10:02:53;;;;;;;0.50;0.50;;;15.10;99.90;;;;;;4337236;32;20118;-68
2023/03/24 10:05:27;;;;;;;0.60;0.60;;;15.00;99.90;;;;;;4341621;32;20676;-65
2023/03/24 10:08:16;;;;;;;0.57;0.57;;;15.00;99.90;;;;;;4328557;32;21645;-65
2023/03/24 10:11:09;;;;;;;0.40;0.40;;;15.00;99.90;;;;;;4336539;32;20561;-65
2023/03/24 10:14:09;;;;;;;0.60;0.60;;;14.90;99.90;;;;;;4323363;32;20774;-63
2023/03/24 10:16:49;;;;;;;0.43;0.43;;;14.80;99.90;;;;;;4335931;32;20157;-64
2023/03/24 10:19:37;;;;;;;0.50;0.50;;;14.80;99.90;;;;;;4326880;32;20082;-65
2023/03/24 10:22:18;;;;;;;0.30;0.30;;;14.70;99.90;;;;;;4337241;32;20150;-65
2023/03/24 10:24:55;;;;;;;1.52;1.00;;;14.70;99.90;;;;;;4344403;32;20113;-64
2023/03/24 10:27:30;;;;;;;0.50;0.50;;;14.60;99.90;;;;;;4342038;32;20501;-64
2023/03/24 10:30:11;;;;;;;19.02;1.15;;;14.70;99.90;;;;;;4329511;32;20094;-64
2023/03/24 10:32:37;;;;;;;0.45;0.45;;;14.70;99.90;;;;;;4323958;32;21034;-64
2023/03/24 10:35:08;;;;;;;0.45;0.45;;;14.80;99.90;;;;;;4324695;32;20232;-64
2023/03/24 10:37:34;;;;;;;0.40;0.40;;;15.00;99.90;;;;;;4332008;32;20118;-63
2023/03/24 10:40:00;;;;;;;0.50;0.50;;;15.20;99.90;;;;;;4334028;32;20763;-64
2023/03/24 10:42:31;;;;;;;0.75;0.50;;;15.50;99.90;;;;;;4330040;32;21552;-64
2023/03/24 10:44:57;;;;;;;0.40;0.40;;;15.70;99.90;;;;;;4321738;32;21116;-64
2023/03/24 10:47:26;;;;;;;0.50;0.50;;;15.70;99.90;;;;;;4338445;32;20243;-63
2023/03/24 10:49:56;;;;;;;0.68;0.50;;;15.70;99.90;;;;;;4326841;32;20152;-63
2023/03/24 10:52:23;;;;;;;0.68;0.65;;;15.60;99.90;;;;;;4330809;32;20561;-63
2023/03/24 10:54:55;;;;;;;0.50;0.50;;;15.50;99.90;;;;;;4327785;32;20188;-62
2023/03/24 10:57:21;;;;;;;0.50;0.50;;;15.50;99.90;;;;;;4332811;32;20094;-63
2023/03/24 10:59:56;;;;;;;0.45;0.45;;;15.50;99.90;;;;;;4344753;32;20090;-63
2023/03/24 11:02:28;;;;;;;0.40;0.40;;;15.50;99.90;;;;;;4342032;32;21544;-65
2023/03/24 11:04:58;;;;;;;0.95;0.85;;;15.60;99.90;;;;;;4344557;32;20109;-63
2023/03/24 11:07:34;;;;;;;0.40;0.40;;;15.60;99.90;;;;;;4337156;32;20106;-64
2023/03/24 11:10:05;;;;;;;0.37;0.37;;;15.60;99.90;;;;;;4327131;32;20282;-64
2023/03/24 11:12:33;;;;;;;0.40;0.40;;;15.60;99.90;;;;;;4338701;32;21028;-65
2023/03/24 11:15:20;;;;;;;0.40;0.40;;;15.70;99.90;;;;;;4325801;32;20156;-65
2023/03/24 11:17:51;;;;;;;14.25;0.50;;;15.70;99.90;;;;;;4319181;32;20532;-65
2023/03/24 11:20:29;;;;;;;0.45;0.45;;;15.70;99.90;;;;;;4345852;32;20703;-65
2023/03/24 11:23:02;;;;;;;0.40;0.40;;;15.90;99.90;;;;;;4331016;32;22464;-65
2023/03/24 11:25:31;;;;;;;1.25;0.85;;;16.30;99.90;;;;;;4356048;32;20136;-65
2023/03/24 11:28:07;;;;;;;0.40;0.40;;;16.80;99.90;;;;;;4359945;32;20065;-65
2023/03/24 11:30:50;;;;;;;0.40;0.40;;;16.70;99.90;;;;;;4344584;32;20667;-64
2023/03/24 11:33:22;;;;;;;0.40;0.40;;;16.50;99.90;;;;;;4329148;32;20113;-65
2023/03/24 11:35:48;;;;;;;0.40;0.40;;;16.50;99.90;;;;;;4347349;32;20255;-64
2023/03/24 11:38:16;;;;;;;0.50;0.50;;;16.40;99.90;;;;;;4352621;32;21122;-64
2023/03/24 11:41:01;;;;;;;0.50;0.50;;;16.50;99.90;;;;;;4338901;32;20636;-65
2023/03/24 11:43:27;;;;;;;0.30;0.30;;;16.60;99.90;;;;;;4347471;32;84016;-65
2023/03/24 11:46:19;;;;;;;0.35;0.35;;;16.80;99.90;;;;;;4337233;32;20134;-65
2023/03/24 11:48:54;;;;;;;0.30;0.30;;;17.00;99.90;;;;;;4345843;32;20226;-65
2023/03/24 11:51:28;;;;;;;0.50;0.50;;;17.50;99.90;;;;;;4354648;32;20541;-64
2023/03/24 11:53:56;;;;;;;0.40;0.40;;;17.60;99.90;;;;;;4334256;32;20114;-64
2023/03/24 11:56:34;;;;;;;0.55;0.55;;;17.60;99.90;;;;;;4332155;32;20090;-63
2023/03/24 11:59:23;;;;;;;2.50;0.45;;;17.50;99.90;;;;;;4344724;32;20731;-64
2023/03/24 12:02:00;;;;;;;0.40;0.40;;;17.20;99.90;;;;;;4328260;32;20086;-64
2023/03/24 12:04:33;;;;;;;0.40;0.40;;;16.90;99.90;;;;;;4333677;32;20085;-64
2023/03/24 12:07:13;;;;;;;0.30;0.30;;;16.60;99.90;;;;;;4348437;32;20885;-64
2023/03/24 12:09:48;;;;;;;0.40;0.40;;;16.60;99.90;;;;;;4345961;32;20168;-64
2023/03/24 12:12:47;;;;;;;0.37;0.37;;;16.60;99.90;;;;;;4355400;32;20331;-65
2023/03/24 12:15:18;;;;;;;0.40;0.40;;;16.60;99.90;;;;;;4335009;32;20105;-64
2023/03/24 12:17:58;;;;;;;0.37;0.37;;;16.70;99.90;;;;;;4349042;32;20973;-65
2023/03/24 12:20:50;;;;;;;0.40;0.40;;;16.90;99.90;;;;;;4336163;32;20130;-64
2023/03/24 12:23:38;;;;;;;0.50;0.50;;;16.90;99.90;;;;;;4327849;32;20100;-63
2023/03/24 12:26:15;;;;;;;0.43;0.43;;;16.70;99.90;;;;;;4326927;32;20845;-64
2023/03/24 12:28:53;;;;;;;0.40;0.40;;;16.60;99.90;;;;;;4340372;32;20505;-64
2023/03/24 12:31:44;;;;;;;0.70;0.70;;;16.50;99.90;;;;;;4342942;32;20200;-64
2023/03/24 12:34:46;;;;;;;0.47;0.47;;;16.50;99.90;;;;;;4336141;32;20110;-64
2023/03/24 12:37:19;;;;;;;0.50;0.50;;;16.30;99.90;;;;;;4321623;32;20126;-64
2023/03/24 12:40:05;;;;;;;0.50;0.50;;;16.20;99.90;;;;;;4332803;32;20115;-65
2023/03/24 12:42:41;;;;;;;0.43;0.43;;;16.10;99.90;;;;;;4319828;32;21230;-65
2023/03/24 12:45:22;;;;;;;0.40;0.40;;;16.10;99.90;;;;;;4333128;32;20134;-64
2023/03/24 12:48:15;;;;;;;0.40;0.40;;;16.10;99.90;;;;;;4335737;32;20819;-64
2023/03/24 12:51:20;;;;;;;0.40;0.40;;;16.10;99.90;;;;;;4328979;32;20777;-65
2023/03/24 12:54:18;;;;;;;0.50;0.50;;;16.00;99.90;;;;;;4324281;32;20086;-62
2023/03/24 12:56:49;;;;;;;0.40;0.40;;;16.00;99.90;;;;;;4329975;32;20219;-64
2023/03/24 12:59:22;;;;;;;0.37;0.37;;;15.90;99.90;;;;;;4346723;32;20103;-63
2023/03/24 13:02:03;;;;;;;0.40;0.40;;;15.90;99.90;;;;;;4347579;32;20448;-64
2023/03/24 13:04:34;;;;;;;0.40;0.40;;;15.80;99.90;;;;;;4340190;32;20860;-64
2023/03/24 13:07:03;;;;;;;;;;;15.80;99.90;;;;;;4334282;32;20205;-65
2023/03/24 13:09:40;;;;;;;0.57;0.50;;;15.80;99.90;;;;;;4326778;32;19977;-64